Aérodrome :
LOGIN :

S'inscrire | Disclaimer

   EN    FR    IT 

 










Légende :    VFR   VFR Marginal   IFR   IFR Intensif   IFR Très Intensif
Visi : 
Plafond : 
>= 8 km
>= 3000ft
5 à 8 km
1000 à 3000 ft
1500m à 5 km
500 à 1000 ft
800 à 1500m
200 à 500 ft
< 800m
< 200 ft
Symboles :   Orages  Brouillard  Fortes neiges  Fortes précipitations  Vent > 20 kt
SIGMETs :   Divers  Orages  Givrage  Turbulence  Onde Orograph.  Cendres Volcan.






- Altitude de l'aérodrome : 49 ft
- Code IATA : SEN


EGMC - Southend

DERNIER METAR :
  • 020620Z 27005KT CAVOK 04/01 Q1016

METARs EXPIRÉS :
  • 020550Z 29002KT 9999 FEW041 04/01 Q1016
  • 020520Z 25005KT 9999 SCT042 03/01 Q1016
  • 020450Z 24005KT 9999 SCT044 03/01 Q1016
  • 020420Z 24005KT 9999 BKN044 05/02 Q1016
  • 020350Z 29006KT 9999 BKN043 06/02 Q1017

TAF TAF EGMC
Valide du 02 à 06h jusqu'au 02 à 15h UTC


020459Z 0206/0215 30008KT 9999 SCT035
PROB30
TEMPO 0206/0210 BKN012
PROB30
TEMPO 0213/0215 8000 -SHRA



MET'MAP, la Météo Aéronautique d'un coup d'oeil ! - Copyright ORBIFLY Décembre 2007 - Disclaimer

ORBIFLY MET'MAP TEAM :

Programmation & Développement : Alexandra Zaïnal
Sur une idée originale de : Baudouin d'Aumeries
Assistance à la programmation : Marc-Olivier Méhu
Soutien technique & logistique : Manuel Goepfert

Contact : metmap@orbifly.com




SOURCES & CREDITS :

   NOAA